CDT,Max TemperatureF,Mean TemperatureF,Min TemperatureF,Max Dew PointF,MeanDew PointF,Min DewpointF,Max Humidity, Mean Humidity, Min Humidity, Max Sea Level PressureIn, Mean Sea Level PressureIn, Min Sea Level PressureIn, Max VisibilityMiles, Mean VisibilityMiles, Min VisibilityMiles, Max Wind SpeedMPH, Mean Wind SpeedMPH, Max Gust SpeedMPH,PrecipitationIn, CloudCover, Events, WindDirDegrees
2014-3-1,19,8,-2,16,-1,-9,86,72,66,30.43,30.29,30.09,10,8,1,22,17,28,0.00,8,Rain-Snow,10
2014-3-2,0,-4,-7,-9,-17,-22,71,54,42,30.55,30.48,30.42,10,10,5,23,17,31,0.00,4,Rain,2
2014-3-3,14,4,-5,0,-7,-15,66,57,45,30.52,30.38,30.20,10,10,10,16,9,20,0.00,2,,180
2014-3-4,32,20,8,21,10,0,74,63,50,30.19,30.07,29.99,10,10,10,14,10,18,0.00,2,,153
2014-3-5,26,24,21,21,19,16,93,81,74,30.30,30.21,30.08,10,8,5,18,12,23,0.00,7,,68
2014-3-6,37,29,21,30,24,18,93,87,70,30.29,30.10,29.89,10,6,2,20,11,25,0.00,4,,156
2014-3-7,42,33,24,37,30,21,93,85,76,30.10,29.92,29.81,10,6,3,23,15,28,0.00,4,,289
2014-3-8,33,28,23,25,21,19,100,81,65,30.30,30.24,30.10,10,10,3,17,12,23,0.00,5,Rain,355
2014-3-9,57,39,21,37,29,19,100,67,44,30.27,30.02,29.82,10,10,8,29,13,38,0.00,0,,210
2014-3-10,68,52,35,43,37,30,81,60,35,29.83,29.75,29.66,10,10,8,15,9,,0.00,0,,227
2014-3-11,46,40,35,39,35,27,93,76,66,29.95,29.67,29.54,10,10,9,36,14,51,0.00,4,,55
2014-3-12,41,34,26,28,24,18,93,73,52,30.14,30.08,29.96,10,10,10,23,16,30,0.00,4,,343
2014-3-13,62,44,26,36,29,25,93,64,30,30.08,29.93,29.71,10,10,10,20,10,26,0.00,1,,199
2014-3-14,53,43,33,32,25,21,75,47,28,29.97,29.82,29.66,10,10,10,30,16,40,0.00,0,,279
2014-3-15,57,44,30,32,28,21,100,65,38,30.14,29.96,29.89,10,10,2,34,13,43,0.00,2,Snow,81
2014-3-16,32,26,19,28,17,12,93,70,44,30.33,30.21,30.07,10,9,2,23,16,31,0.00,4,Rain-Snow,41
2014-3-17,48,34,19,27,20,14,80,61,37,30.08,29.75,29.54,10,10,10,25,13,31,0.00,1,,176
2014-3-18,51,42,32,37,31,23,87,66,54,29.64,29.53,29.48,10,10,9,18,13,25,0.00,3,Rain,148
2014-3-19,46,38,30,37,27,23,93,70,43,30.06,29.95,29.65,10,9,4,28,18,36,0.00,6,,302
2014-3-20,60,44,28,32,28,23,87,57,29,30.04,29.95,29.83,10,10,8,14,7,20,0.00,0,,102
2014-3-21,59,46,32,34,29,21,93,62,31,30.16,29.89,29.76,10,10,7,28,14,38,0.00,1,,354
2014-3-22,33,26,19,23,12,3,86,57,30,30.46,30.32,30.17,10,10,10,21,16,26,0.00,2,,355
2014-3-23,33,24,14,12,8,3,79,51,30,30.52,30.43,30.32,10,10,7,14,9,20,0.00,2,,30
2014-3-24,35,29,23,28,18,10,93,64,51,30.34,30.24,30.15,10,9,2,20,11,26,0.00,7,Snow,176
2014-3-25,32,26,19,21,9,0,93,55,29,30.34,30.25,30.19,10,10,7,28,12,36,0.00,2,Snow,308
2014-3-26,57,37,17,39,19,5,93,50,28,30.19,29.93,29.69,10,10,3,38,16,48,0.00,3,,172
2014-3-27,55,44,33,54,42,32,100,97,88,29.74,29.49,29.25,10,4,1,36,20,43,0.05,8,Rain,186
2014-3-28,37,34,32,32,30,28,93,87,81,30.21,30.03,29.75,10,9,7,21,11,30,0.00,8,,349
2014-3-29,51,40,28,30,28,25,100,68,38,30.29,30.21,30.14,10,9,7,12,7,15,0.00,2,,349
2014-3-30,71,54,37,36,32,30,75,47,25,30.13,29.93,29.76,10,10,8,31,17,39,0.00,1,,178
2014-3-31,77,52,28,46,35,14,82,51,16,29.86,29.63,29.43,10,10,3,37,22,52,0.14,1,Rain,201